X  Fermer Données météorologiques d'aviation de Metar     EDHL Lübeck Blankensee Airport
Température
31°C Température
15°C Point de rosée
38% Humidité



Vent
13 KM/H
8 MPH
4 M/S
7 KTS



140°
SE
Conditions actuelles

Clair Clair
Pression 1006.77 (hPa) - 29.73 (inHg)
Visibilité 6 (mile) - 9.7 (km)
Aéroport
Code de l'aéroport EDHL

Emplacement: Lübeck Blankensee Airport
Distance: 78 (km)

Metar:
EDHL 211150Z 14007KT 090V210 CAVOK 31/15 Q1007

Temps: 21-07-2024 11:50 CEST